sensor_id;sensor_type;location;lat;lon;timestamp;P1;durP1;ratioP1;P2;durP2;ratioP2
22916;SDS011;11624;53.250;7.456;2023-12-28T00:06:51;7.88;;;2.20;;
22916;SDS011;11624;53.250;7.456;2023-12-28T00:09:26;6.95;;;2.22;;
22916;SDS011;11624;53.250;7.456;2023-12-28T00:12:00;7.57;;;2.58;;
22916;SDS011;11624;53.250;7.456;2023-12-28T00:14:28;9.68;;;2.67;;
22916;SDS011;11624;53.250;7.456;2023-12-28T00:16:57;8.60;;;2.30;;
22916;SDS011;11624;53.250;7.456;2023-12-28T00:19:25;5.25;;;2.33;;
22916;SDS011;11624;53.250;7.456;2023-12-28T00:21:55;7.78;;;2.72;;
22916;SDS011;11624;53.250;7.456;2023-12-28T00:24:23;8.40;;;2.70;;
22916;SDS011;11624;53.250;7.456;2023-12-28T00:26:51;7.82;;;2.65;;
22916;SDS011;11624;53.250;7.456;2023-12-28T00:29:19;7.60;;;2.38;;
22916;SDS011;11624;53.250;7.456;2023-12-28T00:31:48;7.35;;;2.40;;
22916;SDS011;11624;53.250;7.456;2023-12-28T00:34:16;11.50;;;2.72;;
22916;SDS011;11624;53.250;7.456;2023-12-28T00:36:44;11.57;;;2.92;;
22916;SDS011;11624;53.250;7.456;2023-12-28T00:39:14;7.40;;;2.40;;
22916;SDS011;11624;53.250;7.456;2023-12-28T00:41:43;9.60;;;2.40;;
22916;SDS011;11624;53.250;7.456;2023-12-28T00:44:11;10.38;;;2.78;;
22916;SDS011;11624;53.250;7.456;2023-12-28T00:46:39;11.05;;;2.60;;
22916;SDS011;11624;53.250;7.456;2023-12-28T00:49:07;7.15;;;2.65;;
22916;SDS011;11624;53.250;7.456;2023-12-28T00:51:36;7.15;;;2.40;;
22916;SDS011;11624;53.250;7.456;2023-12-28T00:54:04;8.30;;;2.95;;
22916;SDS011;11624;53.250;7.456;2023-12-28T00:56:34;6.70;;;2.50;;
22916;SDS011;11624;53.250;7.456;2023-12-28T00:59:02;8.52;;;2.85;;
22916;SDS011;11624;53.250;7.456;2023-12-28T01:01:31;9.23;;;2.83;;
22916;SDS011;11624;53.250;7.456;2023-12-28T01:03:59;8.93;;;2.35;;
22916;SDS011;11624;53.250;7.456;2023-12-28T01:06:40;7.45;;;2.40;;
22916;SDS011;11624;53.250;7.456;2023-12-28T01:09:52;10.63;;;2.88;;
22916;SDS011;11624;53.250;7.456;2023-12-28T01:12:55;7.93;;;2.72;;
22916;SDS011;11624;53.250;7.456;2023-12-28T01:15:25;10.23;;;2.90;;
22916;SDS011;11624;53.250;7.456;2023-12-28T01:17:53;7.95;;;2.85;;
22916;SDS011;11624;53.250;7.456;2023-12-28T01:20:32;8.88;;;3.10;;
22916;SDS011;11624;53.250;7.456;2023-12-28T01:23:37;8.82;;;2.90;;
22916;SDS011;11624;53.250;7.456;2023-12-28T01:26:44;8.60;;;2.67;;
22916;SDS011;11624;53.250;7.456;2023-12-28T01:29:31;10.13;;;2.70;;
22916;SDS011;11624;53.250;7.456;2023-12-28T01:33:00;9.38;;;3.00;;
22916;SDS011;11624;53.250;7.456;2023-12-28T01:35:37;12.23;;;3.00;;
22916;SDS011;11624;53.250;7.456;2023-12-28T01:38:07;10.25;;;3.28;;
22916;SDS011;11624;53.250;7.456;2023-12-28T01:40:35;11.75;;;3.10;;
22916;SDS011;11624;53.250;7.456;2023-12-28T01:43:03;8.57;;;2.88;;
22916;SDS011;11624;53.250;7.456;2023-12-28T01:45:33;8.95;;;3.08;;
22916;SDS011;11624;53.250;7.456;2023-12-28T01:48:02;7.65;;;2.97;;
22916;SDS011;11624;53.250;7.456;2023-12-28T01:50:31;10.05;;;2.97;;
22916;SDS011;11624;53.250;7.456;2023-12-28T01:53:00;9.57;;;2.97;;
22916;SDS011;11624;53.250;7.456;2023-12-28T01:55:30;11.95;;;3.17;;
22916;SDS011;11624;53.250;7.456;2023-12-28T01:57:59;7.63;;;2.63;;
22916;SDS011;11624;53.250;7.456;2023-12-28T02:00:28;8.70;;;3.03;;
22916;SDS011;11624;53.250;7.456;2023-12-28T02:03:00;14.32;;;3.35;;
22916;SDS011;11624;53.250;7.456;2023-12-28T02:05:29;8.85;;;3.35;;
22916;SDS011;11624;53.250;7.456;2023-12-28T02:07:57;12.57;;;3.42;;
22916;SDS011;11624;53.250;7.456;2023-12-28T02:10:26;7.97;;;3.17;;
22916;SDS011;11624;53.250;7.456;2023-12-28T02:12:55;8.43;;;3.10;;
22916;SDS011;11624;53.250;7.456;2023-12-28T02:15:24;7.90;;;3.35;;
22916;SDS011;11624;53.250;7.456;2023-12-28T02:17:53;9.48;;;3.20;;
22916;SDS011;11624;53.250;7.456;2023-12-28T02:20:29;10.73;;;3.00;;
22916;SDS011;11624;53.250;7.456;2023-12-28T02:22:58;12.20;;;4.10;;
22916;SDS011;11624;53.250;7.456;2023-12-28T02:25:28;12.73;;;3.10;;
22916;SDS011;11624;53.250;7.456;2023-12-28T02:27:56;9.50;;;3.28;;
22916;SDS011;11624;53.250;7.456;2023-12-28T02:30:25;8.75;;;2.75;;
22916;SDS011;11624;53.250;7.456;2023-12-28T02:32:59;13.27;;;3.33;;
22916;SDS011;11624;53.250;7.456;2023-12-28T02:35:36;8.85;;;2.90;;
22916;SDS011;11624;53.250;7.456;2023-12-28T02:38:10;10.25;;;3.42;;
22916;SDS011;11624;53.250;7.456;2023-12-28T02:40:43;9.13;;;3.35;;
22916;SDS011;11624;53.250;7.456;2023-12-28T02:43:40;10.88;;;2.72;;
22916;SDS011;11624;53.250;7.456;2023-12-28T02:46:52;7.10;;;2.80;;
22916;SDS011;11624;53.250;7.456;2023-12-28T02:49:24;12.25;;;3.33;;
22916;SDS011;11624;53.250;7.456;2023-12-28T02:51:59;11.23;;;3.40;;
22916;SDS011;11624;53.250;7.456;2023-12-28T02:54:28;8.65;;;3.10;;
22916;SDS011;11624;53.250;7.456;2023-12-28T02:57:10;8.77;;;3.00;;
22916;SDS011;11624;53.250;7.456;2023-12-28T03:00:02;7.13;;;2.50;;
22916;SDS011;11624;53.250;7.456;2023-12-28T03:02:37;10.20;;;3.20;;
22916;SDS011;11624;53.250;7.456;2023-12-28T03:05:15;11.80;;;2.80;;
22916;SDS011;11624;53.250;7.456;2023-12-28T03:07:44;10.43;;;3.00;;
22916;SDS011;11624;53.250;7.456;2023-12-28T03:10:14;8.27;;;2.90;;
22916;SDS011;11624;53.250;7.456;2023-12-28T03:12:56;13.82;;;3.05;;
22916;SDS011;11624;53.250;7.456;2023-12-28T03:15:33;10.05;;;2.95;;
22916;SDS011;11624;53.250;7.456;2023-12-28T03:18:02;10.85;;;2.75;;
22916;SDS011;11624;53.250;7.456;2023-12-28T03:20:44;11.57;;;2.72;;
22916;SDS011;11624;53.250;7.456;2023-12-28T03:23:25;8.52;;;2.80;;
22916;SDS011;11624;53.250;7.456;2023-12-28T03:25:57;11.68;;;3.03;;
22916;SDS011;11624;53.250;7.456;2023-12-28T03:28:27;8.65;;;2.90;;
22916;SDS011;11624;53.250;7.456;2023-12-28T03:33:59;12.35;;;3.13;;
22916;SDS011;11624;53.250;7.456;2023-12-28T03:36:49;6.28;;;2.50;;
22916;SDS011;11624;53.250;7.456;2023-12-28T03:39:31;9.13;;;2.78;;
22916;SDS011;11624;53.250;7.456;2023-12-28T03:42:09;10.43;;;2.92;;
22916;SDS011;11624;53.250;7.456;2023-12-28T03:45:17;10.88;;;3.00;;
22916;SDS011;11624;53.250;7.456;2023-12-28T03:47:46;8.90;;;2.92;;
22916;SDS011;11624;53.250;7.456;2023-12-28T03:50:16;11.43;;;3.00;;
22916;SDS011;11624;53.250;7.456;2023-12-28T03:52:45;9.00;;;3.05;;
22916;SDS011;11624;53.250;7.456;2023-12-28T03:55:13;7.18;;;2.70;;
22916;SDS011;11624;53.250;7.456;2023-12-28T03:57:41;11.38;;;2.88;;
22916;SDS011;11624;53.250;7.456;2023-12-28T04:00:09;7.68;;;2.50;;
22916;SDS011;11624;53.250;7.456;2023-12-28T04:02:40;9.05;;;2.95;;
22916;SDS011;11624;53.250;7.456;2023-12-28T04:05:08;8.40;;;2.90;;
22916;SDS011;11624;53.250;7.456;2023-12-28T04:07:37;8.25;;;2.72;;
22916;SDS011;11624;53.250;7.456;2023-12-28T04:10:05;7.75;;;2.65;;
22916;SDS011;11624;53.250;7.456;2023-12-28T04:12:34;10.90;;;2.80;;
22916;SDS011;11624;53.250;7.456;2023-12-28T04:15:04;9.93;;;2.95;;
22916;SDS011;11624;53.250;7.456;2023-12-28T04:17:33;6.30;;;2.33;;
22916;SDS011;11624;53.250;7.456;2023-12-28T04:20:03;10.18;;;3.08;;
22916;SDS011;11624;53.250;7.456;2023-12-28T04:22:34;10.80;;;2.47;;
22916;SDS011;11624;53.250;7.456;2023-12-28T04:25:03;11.80;;;2.65;;
22916;SDS011;11624;53.250;7.456;2023-12-28T04:27:41;11.40;;;2.83;;
22916;SDS011;11624;53.250;7.456;2023-12-28T04:30:14;8.82;;;2.80;;
22916;SDS011;11624;53.250;7.456;2023-12-28T04:32:52;10.40;;;2.75;;
22916;SDS011;11624;53.250;7.456;2023-12-28T04:35:42;8.35;;;2.63;;
22916;SDS011;11624;53.250;7.456;2023-12-28T04:38:10;12.80;;;2.65;;
22916;SDS011;11624;53.250;7.456;2023-12-28T04:40:52;6.45;;;2.45;;
22916;SDS011;11624;53.250;7.456;2023-12-28T04:43:32;7.10;;;2.60;;
22916;SDS011;11624;53.250;7.456;2023-12-28T04:46:05;8.38;;;2.50;;
22916;SDS011;11624;53.250;7.456;2023-12-28T04:48:39;8.82;;;2.53;;
22916;SDS011;11624;53.250;7.456;2023-12-28T04:51:22;10.52;;;2.67;;
22916;SDS011;11624;53.250;7.456;2023-12-28T04:54:01;7.70;;;2.38;;
22916;SDS011;11624;53.250;7.456;2023-12-28T04:56:34;6.85;;;2.22;;
22916;SDS011;11624;53.250;7.456;2023-12-28T04:59:02;7.63;;;2.72;;
22916;SDS011;11624;53.250;7.456;2023-12-28T05:01:31;11.63;;;2.78;;
22916;SDS011;11624;53.250;7.456;2023-12-28T05:04:00;11.32;;;3.10;;
22916;SDS011;11624;53.250;7.456;2023-12-28T05:06:39;8.10;;;2.47;;
22916;SDS011;11624;53.250;7.456;2023-12-28T05:09:16;8.05;;;2.67;;
22916;SDS011;11624;53.250;7.456;2023-12-28T05:12:13;7.15;;;2.35;;
22916;SDS011;11624;53.250;7.456;2023-12-28T05:14:54;11.25;;;2.30;;
22916;SDS011;11624;53.250;7.456;2023-12-28T05:17:24;8.60;;;2.47;;
22916;SDS011;11624;53.250;7.456;2023-12-28T05:19:53;9.35;;;2.33;;
22916;SDS011;11624;53.250;7.456;2023-12-28T05:22:24;10.68;;;2.88;;
22916;SDS011;11624;53.250;7.456;2023-12-28T05:24:52;8.13;;;2.38;;
22916;SDS011;11624;53.250;7.456;2023-12-28T05:27:20;10.00;;;2.35;;
22916;SDS011;11624;53.250;7.456;2023-12-28T05:29:48;9.68;;;2.55;;
22916;SDS011;11624;53.250;7.456;2023-12-28T05:32:17;14.13;;;2.50;;
22916;SDS011;11624;53.250;7.456;2023-12-28T05:34:45;12.40;;;2.60;;
22916;SDS011;11624;53.250;7.456;2023-12-28T05:37:16;10.32;;;2.20;;
22916;SDS011;11624;53.250;7.456;2023-12-28T05:39:45;10.77;;;2.63;;
22916;SDS011;11624;53.250;7.456;2023-12-28T05:42:14;7.95;;;2.03;;
22916;SDS011;11624;53.250;7.456;2023-12-28T05:44:42;9.43;;;2.30;;
22916;SDS011;11624;53.250;7.456;2023-12-28T05:47:10;9.75;;;2.20;;
22916;SDS011;11624;53.250;7.456;2023-12-28T05:49:39;8.90;;;2.20;;
22916;SDS011;11624;53.250;7.456;2023-12-28T05:52:07;9.80;;;2.50;;
22916;SDS011;11624;53.250;7.456;2023-12-28T05:54:35;7.93;;;2.05;;
22916;SDS011;11624;53.250;7.456;2023-12-28T05:57:05;8.13;;;2.13;;
22916;SDS011;11624;53.250;7.456;2023-12-28T05:59:36;13.02;;;3.10;;
22916;SDS011;11624;53.250;7.456;2023-12-28T06:02:05;10.65;;;2.42;;
22916;SDS011;11624;53.250;7.456;2023-12-28T06:04:34;10.35;;;2.42;;
22916;SDS011;11624;53.250;7.456;2023-12-28T06:07:03;9.02;;;2.25;;
22916;SDS011;11624;53.250;7.456;2023-12-28T06:09:32;9.10;;;2.45;;
22916;SDS011;11624;53.250;7.456;2023-12-28T06:12:00;7.85;;;2.17;;
22916;SDS011;11624;53.250;7.456;2023-12-28T06:14:30;12.23;;;2.58;;
22916;SDS011;11624;53.250;7.456;2023-12-28T06:16:58;9.88;;;2.33;;
22916;SDS011;11624;53.250;7.456;2023-12-28T06:19:26;9.45;;;1.95;;
22916;SDS011;11624;53.250;7.456;2023-12-28T06:21:55;13.68;;;2.35;;
22916;SDS011;11624;53.250;7.456;2023-12-28T06:24:25;8.25;;;1.92;;
22916;SDS011;11624;53.250;7.456;2023-12-28T06:26:53;14.35;;;2.95;;
22916;SDS011;11624;53.250;7.456;2023-12-28T06:29:21;12.13;;;2.63;;
22916;SDS011;11624;53.250;7.456;2023-12-28T06:31:51;9.68;;;2.20;;
22916;SDS011;11624;53.250;7.456;2023-12-28T06:34:19;8.00;;;2.03;;
22916;SDS011;11624;53.250;7.456;2023-12-28T06:36:48;13.77;;;2.63;;
22916;SDS011;11624;53.250;7.456;2023-12-28T06:39:16;8.35;;;2.10;;
22916;SDS011;11624;53.250;7.456;2023-12-28T06:41:46;10.57;;;2.08;;
22916;SDS011;11624;53.250;7.456;2023-12-28T06:44:15;11.77;;;2.53;;
22916;SDS011;11624;53.250;7.456;2023-12-28T06:46:43;11.90;;;2.63;;
22916;SDS011;11624;53.250;7.456;2023-12-28T06:49:13;12.20;;;3.15;;
22916;SDS011;11624;53.250;7.456;2023-12-28T06:51:41;9.52;;;2.28;;
22916;SDS011;11624;53.250;7.456;2023-12-28T06:54:12;14.75;;;2.17;;
22916;SDS011;11624;53.250;7.456;2023-12-28T06:56:41;7.50;;;2.25;;
22916;SDS011;11624;53.250;7.456;2023-12-28T06:59:10;10.48;;;2.28;;
22916;SDS011;11624;53.250;7.456;2023-12-28T07:01:38;11.93;;;2.67;;
22916;SDS011;11624;53.250;7.456;2023-12-28T07:04:07;11.15;;;2.42;;
22916;SDS011;11624;53.250;7.456;2023-12-28T07:06:37;9.30;;;2.20;;
22916;SDS011;11624;53.250;7.456;2023-12-28T07:09:05;13.57;;;3.08;;
22916;SDS011;11624;53.250;7.456;2023-12-28T07:11:33;10.10;;;2.67;;
22916;SDS011;11624;53.250;7.456;2023-12-28T07:14:02;17.42;;;2.70;;
22916;SDS011;11624;53.250;7.456;2023-12-28T07:16:30;13.40;;;2.83;;
22916;SDS011;11624;53.250;7.456;2023-12-28T07:18:58;8.65;;;1.90;;
22916;SDS011;11624;53.250;7.456;2023-12-28T07:21:27;10.60;;;2.13;;
22916;SDS011;11624;53.250;7.456;2023-12-28T07:23:56;12.25;;;2.28;;
22916;SDS011;11624;53.250;7.456;2023-12-28T07:26:25;14.52;;;2.85;;
22916;SDS011;11624;53.250;7.456;2023-12-28T07:32:11;9.68;;;1.90;;
22916;SDS011;11624;53.250;7.456;2023-12-28T07:34:45;18.80;;;2.33;;
22916;SDS011;11624;53.250;7.456;2023-12-28T07:37:14;17.00;;;2.40;;
22916;SDS011;11624;53.250;7.456;2023-12-28T07:39:43;11.27;;;2.20;;
22916;SDS011;11624;53.250;7.456;2023-12-28T07:42:13;11.98;;;2.22;;
22916;SDS011;11624;53.250;7.456;2023-12-28T07:44:42;13.32;;;2.50;;
22916;SDS011;11624;53.250;7.456;2023-12-28T07:47:11;12.73;;;2.53;;
22916;SDS011;11624;53.250;7.456;2023-12-28T07:49:41;18.27;;;2.58;;
22916;SDS011;11624;53.250;7.456;2023-12-28T07:52:09;16.10;;;2.60;;
22916;SDS011;11624;53.250;7.456;2023-12-28T07:54:37;10.77;;;2.08;;
22916;SDS011;11624;53.250;7.456;2023-12-28T07:57:07;11.23;;;2.45;;
22916;SDS011;11624;53.250;7.456;2023-12-28T07:59:36;14.80;;;2.35;;
22916;SDS011;11624;53.250;7.456;2023-12-28T08:02:25;13.25;;;2.03;;
22916;SDS011;11624;53.250;7.456;2023-12-28T08:05:09;17.92;;;2.33;;
22916;SDS011;11624;53.250;7.456;2023-12-28T08:07:56;14.18;;;3.15;;
22916;SDS011;11624;53.250;7.456;2023-12-28T08:10:25;13.30;;;2.22;;
22916;SDS011;11624;53.250;7.456;2023-12-28T08:12:55;18.25;;;2.42;;
22916;SDS011;11624;53.250;7.456;2023-12-28T08:15:24;16.00;;;3.05;;
22916;SDS011;11624;53.250;7.456;2023-12-28T08:17:52;14.65;;;3.00;;
22916;SDS011;11624;53.250;7.456;2023-12-28T08:20:20;13.25;;;2.50;;
22916;SDS011;11624;53.250;7.456;2023-12-28T08:22:49;17.80;;;2.42;;
22916;SDS011;11624;53.250;7.456;2023-12-28T08:25:36;12.85;;;2.65;;
22916;SDS011;11624;53.250;7.456;2023-12-28T08:28:05;16.55;;;2.85;;
22916;SDS011;11624;53.250;7.456;2023-12-28T08:30:34;14.32;;;3.05;;
22916;SDS011;11624;53.250;7.456;2023-12-28T08:33:02;15.40;;;2.63;;
22916;SDS011;11624;53.250;7.456;2023-12-28T08:35:32;14.02;;;2.78;;
22916;SDS011;11624;53.250;7.456;2023-12-28T08:38:00;15.68;;;2.83;;
22916;SDS011;11624;53.250;7.456;2023-12-28T08:40:29;14.77;;;2.85;;
22916;SDS011;11624;53.250;7.456;2023-12-28T08:42:57;12.63;;;2.72;;
22916;SDS011;11624;53.250;7.456;2023-12-28T08:45:27;17.40;;;3.42;;
22916;SDS011;11624;53.250;7.456;2023-12-28T08:47:55;15.80;;;2.67;;
22916;SDS011;11624;53.250;7.456;2023-12-28T08:50:24;15.48;;;2.53;;
22916;SDS011;11624;53.250;7.456;2023-12-28T08:52:53;15.30;;;2.97;;
22916;SDS011;11624;53.250;7.456;2023-12-28T08:55:21;20.67;;;2.97;;
22916;SDS011;11624;53.250;7.456;2023-12-28T08:57:49;19.50;;;2.88;;
22916;SDS011;11624;53.250;7.456;2023-12-28T09:00:18;17.05;;;3.05;;
22916;SDS011;11624;53.250;7.456;2023-12-28T09:02:47;17.23;;;3.03;;
22916;SDS011;11624;53.250;7.456;2023-12-28T09:05:16;13.48;;;2.67;;
22916;SDS011;11624;53.250;7.456;2023-12-28T09:07:44;17.58;;;3.05;;
22916;SDS011;11624;53.250;7.456;2023-12-28T09:10:12;18.48;;;2.70;;
22916;SDS011;11624;53.250;7.456;2023-12-28T09:12:44;19.38;;;3.00;;
22916;SDS011;11624;53.250;7.456;2023-12-28T09:15:12;21.05;;;3.10;;
22916;SDS011;11624;53.250;7.456;2023-12-28T09:17:41;15.63;;;2.65;;
22916;SDS011;11624;53.250;7.456;2023-12-28T09:20:32;19.50;;;3.78;;
22916;SDS011;11624;53.250;7.456;2023-12-28T09:23:05;15.15;;;2.90;;
22916;SDS011;11624;53.250;7.456;2023-12-28T09:25:40;16.92;;;3.28;;
22916;SDS011;11624;53.250;7.456;2023-12-28T09:28:19;19.75;;;3.92;;
22916;SDS011;11624;53.250;7.456;2023-12-28T09:30:55;13.25;;;2.95;;
22916;SDS011;11624;53.250;7.456;2023-12-28T09:37:09;15.18;;;2.70;;
22916;SDS011;11624;53.250;7.456;2023-12-28T09:39:37;15.90;;;3.20;;
22916;SDS011;11624;53.250;7.456;2023-12-28T09:42:06;20.98;;;3.35;;
22916;SDS011;11624;53.250;7.456;2023-12-28T09:44:44;19.88;;;2.65;;
22916;SDS011;11624;53.250;7.456;2023-12-28T09:47:12;16.33;;;3.70;;
22916;SDS011;11624;53.250;7.456;2023-12-28T09:49:43;17.77;;;3.67;;
22916;SDS011;11624;53.250;7.456;2023-12-28T09:52:11;17.70;;;3.10;;
22916;SDS011;11624;53.250;7.456;2023-12-28T09:54:40;18.67;;;3.33;;
22916;SDS011;11624;53.250;7.456;2023-12-28T09:57:08;21.33;;;3.63;;
22916;SDS011;11624;53.250;7.456;2023-12-28T10:00:31;19.52;;;3.42;;
22916;SDS011;11624;53.250;7.456;2023-12-28T10:03:00;20.95;;;3.53;;
22916;SDS011;11624;53.250;7.456;2023-12-28T10:08:15;16.90;;;2.50;;
22916;SDS011;11624;53.250;7.456;2023-12-28T10:10:44;19.60;;;3.47;;
22916;SDS011;11624;53.250;7.456;2023-12-28T10:13:18;16.48;;;2.38;;
22916;SDS011;11624;53.250;7.456;2023-12-28T10:15:46;13.60;;;2.85;;
22916;SDS011;11624;53.250;7.456;2023-12-28T10:18:17;15.15;;;3.15;;
22916;SDS011;11624;53.250;7.456;2023-12-28T10:20:51;19.35;;;3.22;;
22916;SDS011;11624;53.250;7.456;2023-12-28T10:23:20;17.85;;;3.08;;
22916;SDS011;11624;53.250;7.456;2023-12-28T10:25:49;11.98;;;3.03;;
22916;SDS011;11624;53.250;7.456;2023-12-28T10:28:22;19.83;;;3.95;;
22916;SDS011;11624;53.250;7.456;2023-12-28T10:30:56;17.95;;;3.17;;
22916;SDS011;11624;53.250;7.456;2023-12-28T10:33:25;18.58;;;3.08;;
22916;SDS011;11624;53.250;7.456;2023-12-28T10:35:55;23.52;;;3.65;;
22916;SDS011;11624;53.250;7.456;2023-12-28T10:38:27;15.73;;;3.17;;
22916;SDS011;11624;53.250;7.456;2023-12-28T10:41:00;13.40;;;2.75;;
22916;SDS011;11624;53.250;7.456;2023-12-28T10:43:30;13.98;;;3.08;;
22916;SDS011;11624;53.250;7.456;2023-12-28T10:46:01;15.10;;;3.22;;
22916;SDS011;11624;53.250;7.456;2023-12-28T10:48:32;20.50;;;2.72;;
22916;SDS011;11624;53.250;7.456;2023-12-28T10:51:08;16.92;;;3.13;;
22916;SDS011;11624;53.250;7.456;2023-12-28T10:53:41;13.82;;;2.92;;
22916;SDS011;11624;53.250;7.456;2023-12-28T10:56:20;15.43;;;3.08;;
22916;SDS011;11624;53.250;7.456;2023-12-28T10:58:53;18.48;;;2.92;;
22916;SDS011;11624;53.250;7.456;2023-12-28T11:01:27;17.30;;;3.08;;
22916;SDS011;11624;53.250;7.456;2023-12-28T11:04:02;19.67;;;3.10;;
22916;SDS011;11624;53.250;7.456;2023-12-28T11:06:37;24.88;;;4.18;;
22916;SDS011;11624;53.250;7.456;2023-12-28T11:09:08;17.77;;;3.03;;
22916;SDS011;11624;53.250;7.456;2023-12-28T11:12:03;18.77;;;3.20;;
22916;SDS011;11624;53.250;7.456;2023-12-28T11:14:52;20.38;;;3.65;;
22916;SDS011;11624;53.250;7.456;2023-12-28T11:17:23;15.93;;;3.65;;
22916;SDS011;11624;53.250;7.456;2023-12-28T11:19:52;13.43;;;3.13;;
22916;SDS011;11624;53.250;7.456;2023-12-28T11:22:23;14.95;;;3.20;;
22916;SDS011;11624;53.250;7.456;2023-12-28T11:24:55;17.27;;;3.03;;
22916;SDS011;11624;53.250;7.456;2023-12-28T11:27:25;19.30;;;2.65;;
22916;SDS011;11624;53.250;7.456;2023-12-28T11:30:00;15.38;;;3.15;;
22916;SDS011;11624;53.250;7.456;2023-12-28T11:32:31;15.80;;;2.65;;
22916;SDS011;11624;53.250;7.456;2023-12-28T11:35:00;11.68;;;2.38;;
22916;SDS011;11624;53.250;7.456;2023-12-28T11:37:30;18.00;;;3.55;;
22916;SDS011;11624;53.250;7.456;2023-12-28T11:40:08;17.90;;;3.33;;
22916;SDS011;11624;53.250;7.456;2023-12-28T11:42:51;18.58;;;3.40;;
22916;SDS011;11624;53.250;7.456;2023-12-28T11:45:34;19.23;;;3.33;;
22916;SDS011;11624;53.250;7.456;2023-12-28T11:52:10;19.15;;;3.35;;
22916;SDS011;11624;53.250;7.456;2023-12-28T12:02:45;20.23;;;3.75;;
22916;SDS011;11624;53.250;7.456;2023-12-28T12:06:16;25.42;;;3.83;;
22916;SDS011;11624;53.250;7.456;2023-12-28T12:08:49;19.27;;;3.13;;
22916;SDS011;11624;53.250;7.456;2023-12-28T12:12:20;18.23;;;3.35;;
22916;SDS011;11624;53.250;7.456;2023-12-28T12:18:08;14.90;;;3.47;;
22916;SDS011;11624;53.250;7.456;2023-12-28T12:21:15;15.88;;;3.08;;
22916;SDS011;11624;53.250;7.456;2023-12-28T12:27:46;19.55;;;3.05;;
22916;SDS011;11624;53.250;7.456;2023-12-28T12:30:25;16.92;;;3.25;;
22916;SDS011;11624;53.250;7.456;2023-12-28T12:48:34;17.55;;;2.97;;
22916;SDS011;11624;53.250;7.456;2023-12-28T12:51:35;16.80;;;3.58;;
22916;SDS011;11624;53.250;7.456;2023-12-28T12:54:16;17.88;;;3.70;;
22916;SDS011;11624;53.250;7.456;2023-12-28T12:57:32;13.25;;;2.83;;
22916;SDS011;11624;53.250;7.456;2023-12-28T13:00:01;15.77;;;3.17;;
22916;SDS011;11624;53.250;7.456;2023-12-28T13:03:03;17.20;;;3.38;;
22916;SDS011;11624;53.250;7.456;2023-12-28T13:05:47;21.20;;;3.70;;
22916;SDS011;11624;53.250;7.456;2023-12-28T13:08:37;14.77;;;2.95;;
22916;SDS011;11624;53.250;7.456;2023-12-28T13:15:29;15.65;;;3.05;;
22916;SDS011;11624;53.250;7.456;2023-12-28T13:18:26;19.80;;;3.25;;
22916;SDS011;11624;53.250;7.456;2023-12-28T13:23:53;16.48;;;3.42;;
22916;SDS011;11624;53.250;7.456;2023-12-28T13:27:03;18.70;;;3.40;;
22916;SDS011;11624;53.250;7.456;2023-12-28T13:30:13;21.45;;;3.65;;
22916;SDS011;11624;53.250;7.456;2023-12-28T13:36:22;14.05;;;2.97;;
22916;SDS011;11624;53.250;7.456;2023-12-28T13:39:38;19.55;;;3.22;;
22916;SDS011;11624;53.250;7.456;2023-12-28T13:46:33;20.75;;;3.15;;
22916;SDS011;11624;53.250;7.456;2023-12-28T13:53:05;15.13;;;3.40;;
22916;SDS011;11624;53.250;7.456;2023-12-28T13:55:58;20.00;;;3.38;;
22916;SDS011;11624;53.250;7.456;2023-12-28T13:59:47;19.48;;;3.60;;
22916;SDS011;11624;53.250;7.456;2023-12-28T14:02:40;20.35;;;3.05;;
22916;SDS011;11624;53.250;7.456;2023-12-28T14:05:09;19.13;;;3.35;;
22916;SDS011;11624;53.250;7.456;2023-12-28T14:07:46;21.98;;;3.03;;
22916;SDS011;11624;53.250;7.456;2023-12-28T14:10:54;22.30;;;3.45;;
22916;SDS011;11624;53.250;7.456;2023-12-28T14:20:16;21.92;;;2.97;;
22916;SDS011;11624;53.250;7.456;2023-12-28T14:23:32;21.60;;;3.65;;
22916;SDS011;11624;53.250;7.456;2023-12-28T14:26:19;22.08;;;4.07;;
22916;SDS011;11624;53.250;7.456;2023-12-28T14:29:01;22.88;;;3.83;;
22916;SDS011;11624;53.250;7.456;2023-12-28T14:32:22;17.15;;;3.40;;
22916;SDS011;11624;53.250;7.456;2023-12-28T14:35:27;17.08;;;2.92;;
22916;SDS011;11624;53.250;7.456;2023-12-28T14:39:21;14.05;;;3.00;;
22916;SDS011;11624;53.250;7.456;2023-12-28T14:41:59;24.50;;;3.35;;
22916;SDS011;11624;53.250;7.456;2023-12-28T14:44:30;16.25;;;3.38;;
22916;SDS011;11624;53.250;7.456;2023-12-28T14:46:58;16.80;;;2.92;;
22916;SDS011;11624;53.250;7.456;2023-12-28T14:49:26;18.83;;;3.70;;
22916;SDS011;11624;53.250;7.456;2023-12-28T14:51:55;20.48;;;3.38;;
22916;SDS011;11624;53.250;7.456;2023-12-28T14:54:24;20.58;;;2.80;;
22916;SDS011;11624;53.250;7.456;2023-12-28T14:56:53;21.38;;;3.38;;
22916;SDS011;11624;53.250;7.456;2023-12-28T14:59:22;19.17;;;3.45;;
22916;SDS011;11624;53.250;7.456;2023-12-28T15:01:50;17.33;;;3.28;;
22916;SDS011;11624;53.250;7.456;2023-12-28T15:04:18;19.40;;;3.22;;
22916;SDS011;11624;53.250;7.456;2023-12-28T15:06:52;18.35;;;2.80;;
22916;SDS011;11624;53.250;7.456;2023-12-28T15:09:20;21.65;;;3.53;;
22916;SDS011;11624;53.250;7.456;2023-12-28T15:11:51;19.45;;;3.10;;
22916;SDS011;11624;53.250;7.456;2023-12-28T15:14:20;14.82;;;2.90;;
22916;SDS011;11624;53.250;7.456;2023-12-28T15:17:16;17.58;;;2.92;;
22916;SDS011;11624;53.250;7.456;2023-12-28T15:20:13;16.95;;;3.00;;
22916;SDS011;11624;53.250;7.456;2023-12-28T15:23:21;16.80;;;3.22;;
22916;SDS011;11624;53.250;7.456;2023-12-28T15:25:57;21.13;;;2.80;;
22916;SDS011;11624;53.250;7.456;2023-12-28T15:28:27;19.92;;;3.08;;
22916;SDS011;11624;53.250;7.456;2023-12-28T15:30:59;22.08;;;3.28;;
22916;SDS011;11624;53.250;7.456;2023-12-28T15:33:27;19.58;;;2.50;;
22916;SDS011;11624;53.250;7.456;2023-12-28T15:35:56;16.20;;;3.08;;
22916;SDS011;11624;53.250;7.456;2023-12-28T15:38:24;23.30;;;3.35;;
22916;SDS011;11624;53.250;7.456;2023-12-28T15:40:52;18.35;;;3.38;;
22916;SDS011;11624;53.250;7.456;2023-12-28T15:43:20;15.32;;;2.72;;
22916;SDS011;11624;53.250;7.456;2023-12-28T15:45:50;19.60;;;3.58;;
22916;SDS011;11624;53.250;7.456;2023-12-28T15:48:19;22.20;;;4.10;;
22916;SDS011;11624;53.250;7.456;2023-12-28T15:50:47;19.30;;;3.35;;
22916;SDS011;11624;53.250;7.456;2023-12-28T15:53:16;18.50;;;2.88;;
22916;SDS011;11624;53.250;7.456;2023-12-28T15:55:44;16.25;;;3.03;;
22916;SDS011;11624;53.250;7.456;2023-12-28T15:58:13;19.38;;;2.97;;
22916;SDS011;11624;53.250;7.456;2023-12-28T16:00:42;17.20;;;2.88;;
22916;SDS011;11624;53.250;7.456;2023-12-28T16:03:12;21.48;;;3.20;;
22916;SDS011;11624;53.250;7.456;2023-12-28T16:05:40;18.45;;;3.30;;
22916;SDS011;11624;53.250;7.456;2023-12-28T16:08:11;18.08;;;4.22;;
22916;SDS011;11624;53.250;7.456;2023-12-28T16:10:39;15.55;;;2.90;;
22916;SDS011;11624;53.250;7.456;2023-12-28T16:13:07;24.27;;;3.17;;
22916;SDS011;11624;53.250;7.456;2023-12-28T16:15:36;12.10;;;2.42;;
22916;SDS011;11624;53.250;7.456;2023-12-28T16:18:05;14.73;;;2.65;;
22916;SDS011;11624;53.250;7.456;2023-12-28T16:20:36;16.02;;;2.97;;
22916;SDS011;11624;53.250;7.456;2023-12-28T16:23:05;22.05;;;3.80;;
22916;SDS011;11624;53.250;7.456;2023-12-28T16:25:34;16.60;;;3.22;;
22916;SDS011;11624;53.250;7.456;2023-12-28T16:28:02;15.57;;;3.15;;
22916;SDS011;11624;53.250;7.456;2023-12-28T16:30:35;23.55;;;2.95;;
22916;SDS011;11624;53.250;7.456;2023-12-28T16:33:04;14.90;;;2.33;;
22916;SDS011;11624;53.250;7.456;2023-12-28T16:35:32;16.73;;;2.97;;
22916;SDS011;11624;53.250;7.456;2023-12-28T16:38:02;16.38;;;3.38;;
22916;SDS011;11624;53.250;7.456;2023-12-28T16:40:31;17.70;;;3.58;;
22916;SDS011;11624;53.250;7.456;2023-12-28T16:42:59;16.20;;;2.72;;